createdAt,value
2017-09-01T00:00:22.332Z,20.20
2017-09-01T00:05:08.972Z,20.67
2017-09-01T00:09:55.668Z,19.87
2017-09-01T00:14:42.620Z,21.90
2017-09-01T00:19:29.225Z,19.20
2017-09-01T00:24:15.836Z,18.97
2017-09-01T00:29:02.452Z,18.23
2017-09-01T00:33:49.083Z,19.83
2017-09-01T00:38:36.219Z,20.97
2017-09-01T00:43:22.804Z,20.90
2017-09-01T00:48:09.412Z,20.13
2017-09-01T00:52:56.030Z,18.17
2017-09-01T00:57:42.629Z,17.27
2017-09-01T01:02:29.276Z,17.87
2017-09-01T01:07:16.344Z,18.23
2017-09-01T01:12:03.048Z,15.97
2017-09-01T01:16:49.710Z,16.40
2017-09-01T01:21:36.346Z,18.23
2017-09-01T01:26:23.117Z,19.57
2017-09-01T01:31:09.913Z,18.33
2017-09-01T01:35:56.621Z,18.83
2017-09-01T01:40:43.814Z,17.97
2017-09-01T01:45:30.472Z,18.87
2017-09-01T01:50:17.118Z,18.17
2017-09-01T01:55:03.736Z,16.90
2017-09-01T01:59:50.392Z,18.03
2017-09-01T02:04:36.972Z,16.23
2017-09-01T02:09:24.076Z,18.87
2017-09-01T02:14:10.658Z,18.30
2017-09-01T02:18:57.292Z,18.97
2017-09-01T02:23:43.937Z,19.17
2017-09-01T02:28:30.951Z,19.33
2017-09-01T02:33:17.539Z,20.10
2017-09-01T02:38:04.145Z,21.17
2017-09-01T02:42:50.733Z,24.33
2017-09-01T02:47:37.340Z,26.77
2017-09-01T02:52:24.193Z,27.40
2017-09-01T02:57:10.808Z,25.77
2017-09-01T03:01:57.440Z,28.03
2017-09-01T03:06:44.062Z,25.20
2017-09-01T03:11:31.123Z,27.63
2017-09-01T03:16:17.782Z,27.73
2017-09-01T03:21:04.671Z,25.30
2017-09-01T03:25:51.638Z,26.37
2017-09-01T03:30:38.318Z,24.77
2017-09-01T03:35:25.040Z,24.40
2017-09-01T03:40:11.649Z,25.77
2017-09-01T03:44:58.603Z,28.13
2017-09-01T03:49:45.219Z,29.00
2017-09-01T03:54:31.808Z,27.70
2017-09-01T03:59:18.758Z,28.70
2017-09-01T04:04:05.380Z,26.47
2017-09-01T04:08:52.048Z,27.70
2017-09-01T04:13:38.669Z,23.37
2017-09-01T04:18:25.264Z,26.07
2017-09-01T04:23:11.908Z,26.93
2017-09-01T04:28:06.206Z,27.33
2017-09-01T04:32:52.985Z,27.97
2017-09-01T04:37:39.875Z,26.67
2017-09-01T04:42:26.493Z,26.67
2017-09-01T04:47:14.479Z,22.77
2017-09-01T04:52:01.068Z,23.77
2017-09-01T04:56:47.666Z,24.83
2017-09-01T05:01:34.291Z,26.30
2017-09-01T05:06:20.916Z,25.77
2017-09-01T05:11:07.536Z,28.37
2017-09-01T05:15:54.541Z,25.10
2017-09-01T05:20:41.142Z,23.07
2017-09-01T05:25:28.561Z,24.30
2017-09-01T05:30:15.291Z,23.87
2017-09-01T05:35:02.145Z,21.50
2017-09-01T05:39:48.777Z,21.90
2017-09-01T05:44:35.401Z,21.90
2017-09-01T05:49:22.269Z,21.17
2017-09-01T05:54:08.879Z,18.70
2017-09-01T05:58:55.517Z,18.17
2017-09-01T06:03:42.136Z,19.60
2017-09-01T06:08:29.167Z,19.40
2017-09-01T06:13:15.986Z,19.10
2017-09-01T06:18:02.711Z,18.90
2017-09-01T06:22:49.353Z,19.80
2017-09-01T06:27:35.965Z,18.97
2017-09-01T06:32:22.621Z,21.40
2017-09-01T06:37:09.553Z,22.30
2017-09-01T06:41:56.144Z,22.17
2017-09-01T06:46:42.799Z,27.00
2017-09-01T06:51:29.409Z,26.33
2017-09-01T06:56:16.026Z,24.87
2017-09-01T07:01:03.418Z,22.70
2017-09-01T07:05:50.050Z,22.47
2017-09-01T07:10:37.181Z,19.50
2017-09-01T07:15:23.832Z,20.80
2017-09-01T07:20:10.505Z,17.80
2017-09-01T07:25:04.141Z,16.53
2017-09-01T07:29:50.789Z,17.83
2017-09-01T07:34:37.414Z,15.80
2017-09-01T07:39:24.094Z,17.53
2017-09-01T07:44:10.897Z,18.30
2017-09-01T07:48:57.598Z,16.07
2017-09-01T07:53:44.222Z,14.90
2017-09-01T07:58:30.850Z,12.63
2017-09-01T08:03:18.229Z,15.00
2017-09-01T08:08:04.851Z,15.07
2017-09-01T08:12:51.527Z,22.40
2017-09-01T08:17:38.243Z,16.43
2017-09-01T08:22:24.844Z,22.53
2017-09-01T08:27:11.734Z,29.53
2017-09-01T08:31:58.736Z,22.87
2017-09-01T08:36:45.324Z,20.00
2017-09-01T08:41:32.058Z,22.57
2017-09-01T08:46:18.672Z,23.83
2017-09-01T08:51:05.308Z,19.40
2017-09-01T08:55:51.954Z,24.90
2017-09-01T09:00:38.614Z,19.17
2017-09-01T09:05:25.238Z,21.17
2017-09-01T09:10:12.084Z,22.23
2017-09-01T09:14:58.808Z,20.27
2017-09-01T09:19:45.444Z,27.67
2017-09-01T09:24:32.056Z,14.83
2017-09-01T09:29:18.992Z,11.37
2017-09-01T09:34:05.513Z,9.30
2017-09-01T09:38:52.124Z,9.03
2017-09-01T09:43:38.754Z,11.40
2017-09-01T09:48:25.405Z,14.90
2017-09-01T09:53:12.356Z,20.60
2017-09-01T09:57:59.117Z,18.57
2017-09-01T10:02:46.144Z,10.80
2017-09-01T10:07:32.787Z,15.37
2017-09-01T10:12:19.596Z,15.43
2017-09-01T10:17:06.401Z,13.37
2017-09-01T10:21:53.058Z,11.33
2017-09-01T10:26:39.964Z,7.50
2017-09-01T10:31:26.760Z,9.40
2017-09-01T10:36:13.715Z,7.47
2017-09-01T10:41:00.333Z,8.03
2017-09-01T10:45:47.114Z,7.60
2017-09-01T10:56:17.011Z,5.20
2017-09-01T11:01:03.733Z,4.10
2017-09-01T11:05:50.402Z,5.67
2017-09-01T11:10:37.338Z,5.10
2017-09-01T11:15:23.952Z,5.20
2017-09-01T11:20:16.768Z,5.00
2017-09-01T11:25:03.489Z,5.70
2017-09-01T11:29:50.095Z,6.33
2017-09-01T11:34:36.738Z,6.70
2017-09-01T11:39:23.451Z,5.63
2017-09-01T11:44:10.490Z,6.93
2017-09-01T11:48:57.084Z,6.77
2017-09-01T11:53:44.064Z,8.00
2017-09-01T11:58:30.734Z,7.73
2017-09-01T12:03:17.476Z,9.17
2017-09-01T12:08:04.297Z,9.20
2017-09-01T12:12:50.965Z,8.90
2017-09-01T12:17:37.645Z,10.63
2017-09-01T12:22:24.264Z,9.30
2017-09-01T12:27:10.874Z,8.27
2017-09-01T12:31:57.517Z,6.77
2017-09-01T12:36:44.130Z,5.70
2017-09-01T12:41:30.749Z,3.60
2017-09-01T12:46:17.338Z,3.23
2017-09-01T12:51:04.082Z,2.57
2017-09-01T12:55:50.905Z,3.00
2017-09-01T13:00:41.660Z,2.70
2017-09-01T13:05:28.316Z,3.03
2017-09-01T13:10:15.109Z,2.87
2017-09-01T13:15:02.113Z,3.00
2017-09-01T13:19:48.740Z,2.70
2017-09-01T13:24:35.443Z,2.50
2017-09-01T13:29:22.108Z,2.37
2017-09-01T13:34:08.897Z,4.67
2017-09-01T13:38:55.654Z,4.60
2017-09-01T13:43:42.360Z,4.57
2017-09-01T13:48:29.110Z,5.37
2017-09-01T13:53:16.084Z,5.53
2017-09-01T13:58:02.716Z,4.93
2017-09-01T14:02:49.326Z,5.70
2017-09-01T14:07:35.969Z,6.43
2017-09-01T14:12:22.628Z,10.57
2017-09-01T14:17:09.280Z,9.73
2017-09-01T14:21:55.973Z,7.10
2017-09-01T14:26:42.938Z,4.70
2017-09-01T14:31:29.913Z,3.10
2017-09-01T14:36:16.565Z,4.90
2017-09-01T14:41:03.220Z,4.80
2017-09-01T14:45:49.929Z,4.70
2017-09-01T14:50:36.870Z,4.53
2017-09-01T14:55:23.611Z,4.30
2017-09-01T15:00:10.259Z,4.33
2017-09-01T15:04:56.893Z,4.63
2017-09-01T15:09:43.560Z,5.70
2017-09-01T15:14:30.254Z,4.10
2017-09-01T15:19:17.207Z,3.67
2017-09-01T15:24:03.859Z,3.33
2017-09-01T15:28:50.485Z,3.93
2017-09-01T15:33:37.134Z,5.50
2017-09-01T15:38:23.769Z,4.10
2017-09-01T15:43:10.409Z,4.27
2017-09-01T15:47:57.104Z,3.67
2017-09-01T15:52:44.179Z,3.87
2017-09-01T15:57:30.837Z,3.83
2017-09-01T16:02:17.554Z,3.70
2017-09-01T16:07:04.220Z,3.50
2017-09-01T16:11:51.204Z,3.97
2017-09-01T16:16:38.170Z,2.47
2017-09-01T16:21:24.866Z,2.40
2017-09-01T16:26:11.616Z,2.37
2017-09-01T16:30:58.412Z,2.77
2017-09-01T16:35:45.087Z,2.30
2017-09-01T16:40:31.766Z,3.10
2017-09-01T16:45:18.709Z,3.40
2017-09-01T16:50:05.308Z,4.40
2017-09-01T16:54:52.143Z,4.70
2017-09-01T16:59:38.785Z,5.30
2017-09-01T17:04:25.454Z,5.23
2017-09-01T17:09:12.095Z,4.80
2017-09-01T17:13:58.944Z,5.80
2017-09-01T17:18:45.566Z,5.60
2017-09-01T17:23:32.197Z,5.23
2017-09-01T17:28:18.866Z,6.70
2017-09-01T17:33:05.536Z,6.53
2017-09-01T17:37:52.206Z,6.17
2017-09-01T17:42:39.544Z,6.17
2017-09-01T17:47:26.347Z,6.07
2017-09-01T17:52:13.214Z,6.80
2017-09-01T17:56:59.944Z,6.10
2017-09-01T18:01:46.629Z,5.87
2017-09-01T18:06:33.427Z,6.17
2017-09-01T18:11:20.227Z,5.60
2017-09-01T18:16:07.205Z,5.50
2017-09-01T18:20:53.976Z,5.77
2017-09-01T18:25:41.090Z,5.90
2017-09-01T18:30:27.754Z,6.67
2017-09-01T18:35:14.887Z,6.77
2017-09-01T18:40:02.693Z,5.70
2017-09-01T18:44:49.392Z,6.40
2017-09-01T18:49:36.125Z,7.23
2017-09-01T18:54:22.824Z,7.10
2017-09-01T18:59:09.499Z,8.67
2017-09-01T19:03:56.305Z,7.07
2017-09-01T19:08:43.277Z,8.43
2017-09-01T19:13:30.393Z,8.83
2017-09-01T19:18:17.138Z,7.87
2017-09-01T19:23:03.814Z,7.50
2017-09-01T19:27:50.549Z,8.00
2017-09-01T19:32:37.243Z,7.83
2017-09-01T19:37:23.952Z,8.20
2017-09-01T19:42:10.804Z,8.93
2017-09-01T19:46:59.319Z,9.50
2017-09-01T19:51:46.010Z,8.57
2017-09-01T19:56:32.808Z,9.17
2017-09-01T20:01:19.526Z,9.93
2017-09-01T20:06:06.423Z,10.17
2017-09-01T20:10:53.519Z,9.13
2017-09-01T20:15:40.422Z,10.27
2017-09-01T20:20:27.094Z,8.73
2017-09-01T20:25:14.066Z,7.53
2017-09-01T20:30:00.784Z,6.40
2017-09-01T20:34:47.467Z,6.60
2017-09-01T20:39:34.460Z,6.50
2017-09-01T20:44:21.130Z,7.77
2017-09-01T20:49:07.915Z,6.07
2017-09-01T20:53:54.671Z,6.30
2017-09-01T20:58:41.377Z,6.10
2017-09-01T21:03:28.146Z,5.00
2017-09-01T21:08:14.825Z,5.40
2017-09-01T21:13:01.899Z,5.63
2017-09-01T21:17:48.629Z,6.00
2017-09-01T21:22:35.304Z,5.13
2017-09-01T21:27:21.934Z,5.40
2017-09-01T21:32:08.704Z,6.40
2017-09-01T21:36:55.408Z,6.40
2017-09-01T21:41:42.553Z,7.30
2017-09-01T21:46:29.144Z,6.60
2017-09-01T21:51:15.762Z,6.40
2017-09-01T21:56:02.438Z,7.30
2017-09-01T22:06:12.954Z,8.10
2017-09-01T22:10:59.856Z,8.23
2017-09-01T22:15:46.461Z,8.70
2017-09-01T22:20:33.097Z,8.70
2017-09-01T22:25:19.750Z,7.80
2017-09-01T22:30:06.423Z,8.73
2017-09-01T22:34:53.068Z,8.70
2017-09-01T22:39:40.084Z,9.53
2017-09-01T22:44:26.713Z,9.20
2017-09-01T22:49:13.318Z,7.53
2017-09-01T22:53:59.963Z,9.23
2017-09-01T22:58:46.592Z,8.13
2017-09-01T23:03:33.560Z,8.73
2017-09-01T23:08:20.245Z,7.73
2017-09-01T23:13:06.885Z,7.80
2017-09-01T23:17:53.516Z,8.03
2017-09-01T23:22:40.143Z,7.03
2017-09-01T23:27:27.081Z,6.93
2017-09-01T23:32:13.680Z,7.93
2017-09-01T23:37:00.430Z,6.93
2017-09-01T23:41:47.064Z,7.50
2017-09-01T23:46:33.772Z,7.60
2017-09-01T23:51:20.540Z,6.60
2017-09-01T23:56:07.627Z,7.33
